Motte Rimrock Reserve, California Weather observations

Data are for 10 minute period ending at time listed.
 Day   Time   Solar   Ave.   Ave.  Ave.  Vector  Max.   Baro.   Total    
  of    of     Rad.   Air    Rel.  Wind   Wind   Wind  Press.  Precip.   
Year   Day            Temp.  Hum.  Speed  Dir.   Gust                    
2017   (PST)  Kw/m2    F      %     mph   deg.    mph    mb.     in.     
-------------------------------------------------------------------------
 176    6:50   0.32   78.7    48    1.5    62     3.1   946.6    0.00 
 176    7:00   0.35   79.3    47    1.9    71     3.9   946.6    0.00 
 176    7:10   0.39   80.0    46    1.3    87     3.4   946.6    0.00 
 176    7:20   0.42   82.1    43    0.7    99     2.3   946.6    0.00 
 176    7:30   0.45   82.4    42    1.0    38     3.1   946.6    0.00 
 176    7:40   0.48   83.2    40    1.6   358     4.7   946.4    0.00 
 176    7:50   0.52   84.7    38    0.7   302     2.6   946.4    0.00 
 176    8:00   0.55   85.9    37    2.5    86     5.0   946.3    0.00 
 176    8:10   0.58   84.9    38    2.8    99     4.9   946.3    0.00 
 176    8:20   0.61   85.9    36    2.1   119     4.7   946.3    0.00 
 176    8:30   0.64   86.4    36    1.6   148     3.1   946.3    0.00 
 176    8:40   0.67   88.1    34    3.4    91     5.8   946.3    0.00 
 176    8:50   0.69   88.5    33    2.3    87     5.7   946.2    0.00 
 176    9:00   0.72   89.9    31    2.7    33     5.1   946.2    0.00 
 176    9:10   0.75   90.8    30    1.8    40     3.9   946.2    0.00 
 176    9:20   0.77   91.8    29    1.4    45     5.8   946.2    0.00 
 176    9:30   0.80   93.8    26    1.4   229     4.7   946.3    0.00 
 176    9:40   0.82   94.6    24    3.1   318     6.5   946.4    0.00 
 176    9:50   0.84   95.8    23    3.3   303     6.6   946.4    0.00 
 176   10:00   0.86   96.9    22    3.3   290     6.6   946.5    0.00 
 176   10:10   0.88   97.7    21    2.4   339     7.4   946.6    0.00 
 176   10:20   0.90   98.7    17    6.8   307    13.8   946.6    0.00 
 176   10:30   0.92   99.3    14    9.2   292    15.4   946.6    0.00 
 176   10:40   0.94   99.6    14   10.9   284    15.6   946.4    0.00 
 176   10:50   0.94  100.1    15   12.7   302    18.3   946.4    0.00 
 176   11:00   0.95  100.3    15   12.0   305    16.6   946.4    0.00 
 176   11:10   0.96  100.8    14   13.7   303    21.0   946.3    0.00 
 176   11:20   0.97  100.9    14   13.1   307    20.2   946.3    0.00 
 176   11:30   0.97  101.2    13   13.5   304    20.2   946.3    0.00 
 176   11:40   0.94  102.0    13   15.2   300    22.0   946.3    0.00 
 176   11:50   0.98  102.3    12   17.5   286    23.6   946.2    0.00 
 176   12:00   0.98  102.3    12   19.4   286    24.5   946.1    0.00 
 176   12:10   0.98  103.3    11   17.4   294    25.1   946.1    0.00 
 176   12:20   0.98  103.7    11   17.7   302    25.6   946.1    0.00 
 176   12:30   0.98  102.7    11   21.4   296    27.9   946.0    0.00 
 176   12:40   0.97  103.0    11   19.1   288    24.8   946.0    0.00 
 176   12:50   0.96  104.0    11   17.0   300    25.6   946.0    0.00 
 176   13:00   0.92  103.7    11   17.8   293    24.7   946.0    0.00 
 176   13:10   0.94  103.8    11   17.2   289    24.1   946.0    0.00 
 176   13:20   0.93  104.2    11   18.1   285    24.2   946.0    0.00 
 176   13:30   0.91  104.6    12   16.8   283    25.5   946.0    0.00 
 176   13:40   0.89  105.3    12   15.4   287    21.3   946.0    0.00 
 176   13:50   0.87  104.4    12   18.4   286    24.3   945.9    0.00 
 176   14:00   0.86  104.2    10   18.8   279    26.7   946.0    0.00 
 176   14:10   0.85  103.5     9   23.6   280    31.6   946.0    0.00 
 176   14:20   0.83  103.7     9   22.5   292    31.7   946.0    0.00 
 176   14:30   0.80  104.0     9   20.7   296    28.6   945.9    0.00 
 176   14:40   0.78  104.4     9   19.1   297    30.3   945.9    0.00 
 176   14:50   0.75  104.4     8   20.3   281    27.1   945.9    0.00 
 176   15:00   0.73  104.4     8   20.8   290    27.5   945.8    0.00 
 176   15:10   0.70  104.1     8   20.9   285    27.5   945.7    0.00 
 176   15:20   0.67  104.3     9   18.5   289    26.0   945.7    0.00 
 176   15:30   0.64  104.1     8   21.6   282    30.4   945.6    0.00 
 176   15:40   0.61  103.9     9   20.6   283    27.5   945.6    0.00 
 176   15:50   0.58  103.4    10   18.4   292    28.2   945.6    0.00 
 176   16:00   0.55  103.1    10   16.5   288    22.9   945.5    0.00 
 176   16:10   0.52  102.7    11   17.6   295    25.6   945.5    0.00 
 176   16:20   0.49  102.1    11   17.7   298    25.3   945.5    0.00 
 176   16:30   0.45  102.0    11   17.0   294    22.4   945.4    0.00 
 176   16:40   0.42  101.6    11   17.7   282    23.5   945.3    0.00 
 176   16:50   0.39  101.3    11   17.3   287    23.2   945.3    0.00 
 176   17:00   0.35  100.3    13   13.9   293    18.6   945.3    0.00 
 176   17:10   0.32   99.5    14   13.9   285    18.0   945.4    0.00 
 176   17:20   0.29   97.3    18   13.7   295    17.6   945.4    0.00 
 176   17:30   0.25   95.4    20   14.1   296    18.2   945.3    0.00 
 176   17:40   0.22   94.0    22   14.2   297    17.8   945.2    0.00 
 176   17:50   0.19   93.2    23   13.3   295    17.5   945.2    0.00 
 176   18:00   0.16   92.7    23   13.8   294    17.7   945.1    0.00 
 176   18:10   0.13   92.3    23   12.8   291    16.1   945.1    0.00 
 176   18:20   0.10   91.4    24   12.4   296    15.8   945.0    0.00 
 176   18:30   0.08   90.4    25   12.3   300    15.5   945.1    0.00 
 176   18:40   0.05   88.7    26   12.5   301    17.0   945.1    0.00 
 176   18:50   0.03   87.2    26   13.9   300    17.2   945.3    0.00 
 176   19:00   0.02   86.1    27   13.2   303    17.5   945.4    0.00 
 176   19:10   0.01   84.8    28   11.7   320    14.8   945.5    0.00 
 176   19:20   0.01   83.7    29    9.1   334    12.6   945.7    0.00 
 176   19:30   0.01   82.4    30   11.0   330    13.3   945.7    0.00 
 176   19:40   0.00   81.7    32   10.3   338    13.4   945.9    0.00 
 176   19:50   0.00   81.1    33    8.8   343    11.2   946.0    0.00 
 176   20:00   0.00   80.7    35    8.6   348    11.1   946.3    0.00 
 176   20:10   0.00   80.1    37    7.5     0     9.8   946.5    0.00 
 176   20:20   0.00   79.4    39    8.0     1    10.7   946.6    0.00 
 176   20:30   0.00   78.9    39    5.5   352     9.9   946.8    0.00 
 176   20:40   0.00   78.3    40    2.2     3     4.6   946.9    0.00 
 176   20:50   0.00   78.2    41    4.0   349     6.3   946.9    0.00 
 176   21:00   0.00   78.1    41    4.9   354     7.0   947.0    0.00 
 176   21:10   0.00   77.8    41    5.2   342     6.5   947.1    0.00 
 176   21:20   0.00   77.4    41    5.2   334     7.0   947.1    0.00 
 176   21:30   0.00   78.2    40    4.5   338     6.0   947.1    0.00 
 176   21:40   0.00   77.3    42    3.3   306     4.8   947.2    0.00 
 176   21:50   0.00   77.8    40    4.1   308     6.4   947.2    0.00 
 176   22:00   0.00   77.9    38    4.3   327     5.6   947.3    0.00 
 176   22:10   0.00   79.1    31    4.9   359     6.3   947.3    0.00 
 176   22:20   0.00   82.3    24    4.6    15     5.4   947.3    0.00 
 176   22:30   0.00   83.9    22    3.7    25     5.3   947.3    0.00 
 176   22:40   0.00   84.3    22    3.8    12     5.3   947.2    0.00 
 176   22:50   0.00   84.4    21    4.0   338     5.5   947.2    0.00 
 176   23:00   0.00   83.5    22    4.3   314     5.0   947.1    0.00 
 176   23:10   0.00   83.8    22    3.1   303     4.2   947.1    0.00 
 176   23:20   0.00   83.4    22    1.2   289     2.0   947.2    0.00 
 176   23:30   0.00   82.7    23    1.5   292     2.5   947.2    0.00 
 176   23:40   0.00   83.5    22    2.1   266     4.2   947.2    0.00 
 176   23:50   0.00   82.2    23    4.1   266     4.8   947.1    0.00 
 177    0:00   0.00   81.2    23    3.3   278     4.3   947.1    0.00 
 177    0:10   0.00   81.6    23    2.3   277     3.8   947.2    0.00 
 177    0:20   0.00   81.4    23    4.0   296     4.7   947.2    0.00 
 177    0:30   0.00   80.4    24    2.8   277     4.4   947.2    0.00 
 177    0:40   0.00   80.4    23    3.0   241     4.1   947.2    0.00 
 177    0:50   0.00   80.4    23    3.6   238     4.2   947.2    0.00 
 177    1:00   0.00   79.0    25    3.8   252     5.2   947.2    0.00 
 177    1:10   0.00   79.5    25    1.6   226     3.4   947.1    0.00 
 177    1:20   0.00   78.8    28    1.7   132     2.9   947.2    0.00 
 177    1:30   0.00   79.2    28    1.3   203     2.1   947.1    0.00 
 177    1:40   0.00   79.8    28    1.1   193     1.9   947.1    0.00 
 177    1:50   0.00   79.6    28    1.5   142     2.4   947.1    0.00 
 177    2:00   0.00   79.6    29    1.0   129     2.2   947.0    0.00 
 177    2:10   0.00   79.1    31    2.8   113     4.5   947.0    0.00 
 177    2:20   0.00   77.1    37    3.1   117     4.5   947.0    0.00 
 177    2:30   0.00   77.5    36    2.5   125     3.7   946.9    0.00 
 177    2:40   0.00   78.1    32    3.3   157     4.0   946.8    0.00 
 177    2:50   0.00   78.3    30    3.2   174     3.7   946.8    0.00 
 177    3:00   0.00   78.2    32    4.0   185     4.6   946.8    0.00 
 177    3:10   0.00   77.9    34    3.0   186     3.7   946.7    0.00 
 177    3:20   0.00   77.7    34    3.6   205     4.2   946.7    0.00 
 177    3:30   0.00   78.1    33    3.7   203     4.1   946.6    0.00 
 177    3:40   0.00   78.0    33    4.1   196     4.8   946.7    0.00 
 177    3:50   0.00   78.0    33    3.7   184     4.0   946.8    0.00 
 177    4:00   0.00   78.1    32    3.2   177     3.7   946.8    0.00 
 177    4:10   0.00   77.5    33    2.8   165     3.2   946.9    0.00 
 177    4:20   0.00   77.4    33    2.7   166     3.1   946.9    0.00 
 177    4:30   0.01   77.3    34    2.5   179     3.1   947.0    0.00 
 177    4:40   0.01   77.1    33    1.6   177     2.0   947.2    0.00 
 177    4:50   0.01   77.9    32    2.0   135     2.8   947.2    0.00 
 177    5:00   0.01   78.7    30    1.9   133     2.6   947.2    0.00 
 177    5:10   0.03   80.2    26    1.5   132     3.1   947.2    0.00 
 177    5:20   0.06   80.5    27    2.3   152     3.9   947.3    0.00 
 177    5:30   0.08   80.2    30    2.3   172     2.6   947.3    0.00 
 177    5:40   0.11   80.7    29    1.5   160     2.5   947.3    0.00 
 177    5:50   0.14   82.0    27    2.4   153     2.9   947.2    0.00 
 177    6:00   0.17   82.7    26    1.9   174     3.0   947.2    0.00 
 177    6:10   0.20   83.5    26    0.9   179     2.5   947.3    0.00 
 177    6:20   0.23   82.5    29    2.8   164     3.8   947.4    0.00 
 177    6:30   0.26   82.6    28    2.4   218     5.0   947.3    0.00 
 177    6:40   0.30   84.8    25    1.6   186     3.8   947.3    0.00 

Return to Motte Rimrock Reserve graphs page.


Western Regional Climate Center,wrcc@dri.edu